Time;durP1;ratioP1;P1;durP2;ratioP2;P2;SDS_P1;SDS_P2;PMS_P1;PMS_P2;Temp;Humidity;BMP_temperature;BMP_pressure;BME280_temperature;BME280_humidity;BME280_pressure;Samples;Min_cycle;Max_cycle;Signal;HPM_P1;HPM_P2
2021/04/13 00:02:55;;;;;;;1.52;0.60;;;;;;;;;;6066966;29;20149;-75
2021/04/13 00:05:56;;;;;;;2.75;1.10;;;;;;;;;;6061113;29;20052;-75
2021/04/13 00:09:01;;;;;;;1.80;0.50;;;;;;;;;;6074820;29;20044;-76
2021/04/13 00:12:06;;;;;;;0.90;0.50;;;;;;;;;;6067655;29;20128;-77
2021/04/13 00:15:12;;;;;;;2.22;0.63;;;;;;;;;;6063150;29;20177;-75
2021/04/13 00:18:16;;;;;;;1.05;0.38;;;;;;;;;;6069242;29;20060;-75
2021/04/13 00:21:20;;;;;;;0.70;0.50;;;;;;;;;;6066721;29;20193;-80
2021/04/13 00:24:26;;;;;;;1.88;0.38;;;;;;;;;;6067018;29;20092;-75
2021/04/13 00:27:28;;;;;;;0.85;0.45;;;;;;;;;;6062654;29;20593;-75
2021/04/13 00:30:39;;;;;;;0.45;0.40;;;;;;;;;;6079297;29;20502;-75
2021/04/13 00:33:40;;;;;;;0.88;0.40;;;;;;;;;;6072162;29;20044;-74
2021/04/13 00:36:42;;;;;;;0.77;0.50;;;;;;;;;;6070967;29;20073;-74
2021/04/13 00:39:43;;;;;;;2.28;0.80;;;;;;;;;;6066837;29;20081;-75
2021/04/13 00:42:44;;;;;;;1.00;0.70;;;;;;;;;;6069035;29;20135;-75
2021/04/13 00:45:47;;;;;;;2.00;0.60;;;;;;;;;;6068527;29;20049;-73
2021/04/13 00:48:50;;;;;;;1.45;0.75;;;;;;;;;;6068828;29;20136;-78
2021/04/13 00:51:53;;;;;;;4.50;0.70;;;;;;;;;;6065599;29;20093;-72
2021/04/13 00:54:56;;;;;;;2.43;0.50;;;;;;;;;;6071503;29;20123;-75
2021/04/13 00:58:07;;;;;;;1.40;0.60;;;;;;;;;;6073878;29;20057;-74
2021/04/13 01:01:11;;;;;;;0.98;0.60;;;;;;;;;;6071727;29;21018;-72
2021/04/13 01:04:16;;;;;;;;;;;;;;;;;;6349518;23;20053;-72
2021/04/13 01:07:18;;;;;;;1.15;0.57;;;;;;;;;;6069333;29;20422;-70
2021/04/13 01:10:27;;;;;;;1.15;0.60;;;;;;;;;;6073140;29;20139;-70
2021/04/13 01:13:38;;;;;;;0.82;0.47;;;;;;;;;;6071363;29;20064;-70
2021/04/13 01:16:46;;;;;;;1.05;0.50;;;;;;;;;;6073335;29;20137;-72
2021/04/13 01:19:55;;;;;;;1.35;0.40;;;;;;;;;;6072625;29;20139;-72
2021/04/13 01:23:01;;;;;;;1.27;0.40;;;;;;;;;;6071615;29;20132;-72
2021/04/13 01:26:04;;;;;;;0.88;0.50;;;;;;;;;;6074112;29;20143;-73
2021/04/13 01:29:06;;;;;;;0.80;0.50;;;;;;;;;;6069784;29;20051;-72
2021/04/13 01:32:08;;;;;;;1.67;0.55;;;;;;;;;;6069997;29;20429;-73
2021/04/13 01:35:12;;;;;;;1.58;0.60;;;;;;;;;;6072833;29;20049;-71
2021/04/13 01:38:18;;;;;;;;;;;;;;;;;;6072576;29;20052;-70
2021/04/13 01:41:28;;;;;;;0.95;0.60;;;;;;;;;;6071832;29;19951;-71
2021/04/13 01:44:34;;;;;;;1.48;0.70;;;;;;;;;;6073696;29;20116;-70
2021/04/13 01:47:36;;;;;;;1.63;0.70;;;;;;;;;;6072441;29;20152;-71
2021/04/13 01:50:40;;;;;;;1.30;0.75;;;;;;;;;;6072482;29;20112;-70
2021/04/13 01:53:43;;;;;;;3.25;0.77;;;;;;;;;;6074824;29;20060;-71
2021/04/13 01:56:52;;;;;;;1.92;0.88;;;;;;;;;;6076696;29;20067;-71
2021/04/13 01:59:55;;;;;;;1.30;0.80;;;;;;;;;;6077036;29;20056;-71
2021/04/13 02:03:09;;;;;;;2.20;1.00;;;;;;;;;;6067074;29;20492;-71
2021/04/13 02:06:15;;;;;;;1.80;1.20;;;;;;;;;;6057977;29;20049;-72
2021/04/13 02:09:26;;;;;;;2.65;1.30;;;;;;;;;;6054198;29;20060;-71
2021/04/13 02:12:30;;;;;;;2.40;1.27;;;;;;;;;;6045240;29;20560;-71
2021/04/13 02:15:40;;;;;;;2.35;1.20;;;;;;;;;;6052164;29;20547;-70
2021/04/13 02:18:42;;;;;;;3.30;1.50;;;;;;;;;;6052386;29;20140;-70
2021/04/13 02:21:47;;;;;;;3.67;2.28;;;;;;;;;;6051694;29;20139;-70
2021/04/13 02:24:50;;;;;;;6.20;4.32;;;;;;;;;;6054269;29;20144;-70
2021/04/13 02:27:52;;;;;;;8.13;5.05;;;;;;;;;;6054471;29;20214;-70
2021/04/13 02:30:54;;;;;;;6.13;5.03;;;;;;;;;;6052264;29;20053;-72
2021/04/13 02:33:55;;;;;;;7.30;6.47;;;;;;;;;;6052076;29;20075;-72
2021/04/13 02:37:00;;;;;;;9.30;8.15;;;;;;;;;;6053328;29;20136;-70
2021/04/13 02:40:05;;;;;;;10.93;9.82;;;;;;;;;;6052257;29;20053;-70
2021/04/13 02:43:10;;;;;;;11.77;10.02;;;;;;;;;;6051277;29;20065;-71
2021/04/13 02:46:15;;;;;;;14.07;11.32;;;;;;;;;;6047631;29;20136;-70
2021/04/13 02:49:18;;;;;;;13.30;11.75;;;;;;;;;;6048641;29;20055;-72
2021/04/13 02:52:25;;;;;;;14.00;11.65;;;;;;;;;;6051526;29;20069;-72
2021/04/13 02:55:29;;;;;;;12.57;11.27;;;;;;;;;;6048798;29;20465;-72
2021/04/13 02:58:32;;;;;;;;;;;;;;;;;;6049253;29;20151;-70
2021/04/13 03:01:34;;;;;;;12.05;10.60;;;;;;;;;;6048378;29;21759;-71
2021/04/13 03:04:36;;;;;;;11.32;10.23;;;;;;;;;;6048726;29;20499;-71
2021/04/13 03:07:39;;;;;;;11.13;10.02;;;;;;;;;;6049722;29;20128;-72
2021/04/13 03:10:42;;;;;;;11.82;10.52;;;;;;;;;;6050227;29;20051;-70
2021/04/13 03:13:44;;;;;;;10.43;9.32;;;;;;;;;;6050382;29;20078;-71
2021/04/13 03:16:46;;;;;;;10.35;9.25;;;;;;;;;;6048012;29;20045;-70
2021/04/13 03:19:48;;;;;;;10.23;8.63;;;;;;;;;;6046502;29;20077;-73
2021/04/13 03:22:52;;;;;;;11.82;10.63;;;;;;;;;;6045011;29;20197;-73
2021/04/13 03:25:55;;;;;;;11.98;10.18;;;;;;;;;;6045182;29;20088;-72
2021/04/13 03:28:59;;;;;;;11.80;10.60;;;;;;;;;;6051795;29;20068;-73
2021/04/13 03:32:02;;;;;;;11.65;10.32;;;;;;;;;;6050219;29;20089;-72
2021/04/13 03:35:04;;;;;;;11.95;10.07;;;;;;;;;;6056521;29;20161;-72
2021/04/13 03:38:08;;;;;;;12.35;10.65;;;;;;;;;;6053943;29;20113;-72
2021/04/13 03:41:12;;;;;;;14.35;10.25;;;;;;;;;;6050712;29;20147;-70
2021/04/13 03:44:15;;;;;;;;;;;;;;;;;;6048605;29;20053;-71
2021/04/13 03:47:18;;;;;;;10.80;9.15;;;;;;;;;;6053227;29;20042;-72
2021/04/13 03:50:24;;;;;;;11.23;10.00;;;;;;;;;;6049922;29;20614;-70
2021/04/13 03:53:32;;;;;;;11.07;9.85;;;;;;;;;;6051076;29;20128;-73
2021/04/13 03:56:40;;;;;;;11.70;10.50;;;;;;;;;;6048422;29;20141;-70
2021/04/13 03:59:44;;;;;;;11.30;10.10;;;;;;;;;;6046760;29;20056;-72
2021/04/13 04:02:45;;;;;;;12.93;10.95;;;;;;;;;;6050372;29;20110;-72
2021/04/13 04:05:48;;;;;;;12.50;11.13;;;;;;;;;;6051205;29;20137;-72
2021/04/13 04:08:53;;;;;;;11.30;10.10;;;;;;;;;;6046791;29;20481;-72
2021/04/13 04:11:55;;;;;;;11.15;9.95;;;;;;;;;;6045329;29;20051;-71
2021/04/13 04:14:59;;;;;;;12.23;9.82;;;;;;;;;;6044527;29;20096;-71
2021/04/13 04:18:00;;;;;;;9.88;8.88;;;;;;;;;;6045753;29;20072;-71
2021/04/13 04:21:14;;;;;;;10.15;8.85;;;;;;;;;;6045376;29;20116;-71
2021/04/13 04:24:22;;;;;;;10.30;8.93;;;;;;;;;;6042798;29;20110;-72
2021/04/13 04:27:31;;;;;;;10.23;8.68;;;;;;;;;;6046911;29;20080;-72
2021/04/13 04:30:34;;;;;;;10.80;8.88;;;;;;;;;;6048710;29;20164;-72
2021/04/13 04:33:36;;;;;;;10.50;9.00;;;;;;;;;;6053769;29;20532;-72
2021/04/13 04:36:41;;;;;;;10.55;9.43;;;;;;;;;;6047954;29;20132;-71
2021/04/13 04:39:43;;;;;;;9.80;8.80;;;;;;;;;;6050535;29;20192;-71
2021/04/13 04:42:53;;;;;;;10.13;9.13;;;;;;;;;;6052484;29;20068;-71
2021/04/13 04:45:54;;;;;;;9.68;8.68;;;;;;;;;;6046468;29;20078;-71
2021/04/13 04:49:00;;;;;;;12.20;9.40;;;;;;;;;;6046356;29;20540;-71
2021/04/13 04:52:01;;;;;;;12.10;8.50;;;;;;;;;;6048366;29;20139;-71
2021/04/13 04:55:05;;;;;;;10.40;9.30;;;;;;;;;;6050490;29;20128;-71
2021/04/13 04:58:06;;;;;;;13.90;11.32;;;;;;;;;;6048963;29;20087;-72
2021/04/13 05:01:07;;;;;;;11.30;10.10;;;;;;;;;;6045514;29;20140;-71
2021/04/13 05:04:08;;;;;;;13.35;11.27;;;;;;;;;;6043415;29;20067;-72
2021/04/13 05:07:09;;;;;;;13.73;12.05;;;;;;;;;;6042179;29;21240;-73
2021/04/13 05:10:13;;;;;;;19.30;12.35;;;;;;;;;;6043090;29;20164;-71
2021/04/13 05:13:14;;;;;;;19.40;13.32;;;;;;;;;;6042451;29;20067;-70
2021/04/13 05:16:15;;;;;;;19.35;14.88;;;;;;;;;;6041570;29;20501;-73
2021/04/13 05:19:16;;;;;;;16.65;14.68;;;;;;;;;;6045201;29;20477;-72
2021/04/13 05:22:17;;;;;;;20.55;15.40;;;;;;;;;;6043571;29;20077;-72
2021/04/13 05:25:19;;;;;;;18.20;15.00;;;;;;;;;;6047450;29;20137;-72
2021/04/13 05:28:21;;;;;;;18.10;14.68;;;;;;;;;;6050024;29;20092;-72
2021/04/13 05:31:22;;;;;;;18.25;14.48;;;;;;;;;;6049824;29;20120;-73
2021/04/13 05:34:23;;;;;;;16.90;14.00;;;;;;;;;;6050858;29;20077;-74
2021/04/13 05:37:25;;;;;;;18.60;13.93;;;;;;;;;;6049975;29;20045;-76
2021/04/13 05:40:31;;;;;;;21.23;14.68;;;;;;;;;;6054184;29;20140;-74
2021/04/13 05:43:32;;;;;;;17.05;12.00;;;;;;;;;;6054669;29;20173;-73
2021/04/13 05:46:34;;;;;;;16.98;11.95;;;;;;;;;;6052226;29;20587;-73
2021/04/13 05:49:35;;;;;;;15.43;10.88;;;;;;;;;;6053736;29;20185;-73
2021/04/13 05:52:36;;;;;;;14.32;9.77;;;;;;;;;;6051777;29;20084;-74
2021/04/13 05:55:38;;;;;;;16.23;11.30;;;;;;;;;;6050929;29;20064;-74
2021/04/13 05:58:45;;;;;;;14.77;11.30;;;;;;;;;;6048735;29;20053;-72
2021/04/13 06:01:48;;;;;;;14.07;10.32;;;;;;;;;;6048303;29;20088;-74
2021/04/13 06:04:50;;;;;;;15.50;10.77;;;;;;;;;;6053843;29;20040;-73
2021/04/13 06:07:52;;;;;;;16.17;11.27;;;;;;;;;;6048363;29;20163;-74
2021/04/13 06:10:56;;;;;;;13.40;9.77;;;;;;;;;;6050510;29;20445;-72
2021/04/13 06:13:59;;;;;;;13.30;10.00;;;;;;;;;;6043892;29;20463;-72
2021/04/13 06:17:00;;;;;;;15.60;10.15;;;;;;;;;;6046795;29;20690;-74
2021/04/13 06:20:01;;;;;;;12.10;9.20;;;;;;;;;;6050789;29;20160;-72
2021/04/13 06:23:02;;;;;;;12.65;9.85;;;;;;;;;;6044257;29;20060;-74
2021/04/13 06:26:04;;;;;;;14.98;9.73;;;;;;;;;;6048009;29;20076;-75
2021/04/13 06:29:05;;;;;;;12.35;8.55;;;;;;;;;;6054808;29;20053;-74
2021/04/13 06:32:07;;;;;;;10.55;9.23;;;;;;;;;;6049046;29;20076;-73
2021/04/13 06:35:09;;;;;;;13.68;9.98;;;;;;;;;;6054749;29;20136;-74
2021/04/13 06:38:14;;;;;;;12.43;8.93;;;;;;;;;;6053630;29;20073;-74
2021/04/13 06:41:28;;;;;;;9.77;7.82;;;;;;;;;;6046573;29;20131;-73
2021/04/13 06:44:48;;;;;;;9.85;7.78;;;;;;;;;;6055225;29;20131;-73
2021/04/13 06:48:06;;;;;;;9.55;8.45;;;;;;;;;;6053040;29;20120;-73
2021/04/13 06:51:14;;;;;;;9.35;8.35;;;;;;;;;;6060779;29;20065;-74
2021/04/13 06:54:22;;;;;;;12.73;8.70;;;;;;;;;;6059137;29;20049;-73
2021/04/13 06:57:38;;;;;;;11.40;8.88;;;;;;;;;;6049505;29;20048;-74
2021/04/13 07:00:56;;;;;;;10.23;8.40;;;;;;;;;;6051686;29;20080;-73
2021/04/13 07:04:00;;;;;;;9.88;8.77;;;;;;;;;;6049066;29;20072;-73
2021/04/13 07:07:05;;;;;;;13.13;8.60;;;;;;;;;;6051913;29;20064;-73
2021/04/13 07:10:20;;;;;;;11.57;9.32;;;;;;;;;;6046642;29;20168;-73
2021/04/13 07:13:22;;;;;;;;;;;;;;;;;;6053968;29;20124;-73
2021/04/13 07:16:26;;;;;;;11.05;8.32;;;;;;;;;;6047520;29;20027;-74
2021/04/13 07:19:31;;;;;;;13.55;8.68;;;;;;;;;;6051253;29;20112;-73
2021/04/13 07:22:35;;;;;;;9.13;7.20;;;;;;;;;;6047329;29;20571;-73
2021/04/13 07:25:41;;;;;;;11.15;6.68;;;;;;;;;;6046377;29;20431;-74
2021/04/13 07:28:52;;;;;;;9.27;7.03;;;;;;;;;;6047742;29;20061;-73
2021/04/13 07:31:59;;;;;;;9.93;6.20;;;;;;;;;;6048277;29;20185;-73
2021/04/13 07:35:00;;;;;;;10.00;6.68;;;;;;;;;;6045847;29;20144;-74
2021/04/13 07:38:03;;;;;;;11.30;7.00;;;;;;;;;;6046023;29;20400;-73
2021/04/13 07:41:06;;;;;;;9.18;6.47;;;;;;;;;;6046294;29;20448;-73
2021/04/13 07:44:12;;;;;;;6.63;5.43;;;;;;;;;;6053411;29;20128;-74
2021/04/13 07:47:37;;;;;;;7.70;5.15;;;;;;;;;;6052759;29;20087;-74
2021/04/13 07:50:59;;;;;;;7.75;5.40;;;;;;;;;;6049849;29;20072;-74
2021/04/13 07:54:06;;;;;;;5.57;3.70;;;;;;;;;;6053667;29;20092;-75
2021/04/13 07:57:10;;;;;;;14.27;7.43;;;;;;;;;;6052144;29;20556;-73
2021/04/13 08:00:19;;;;;;;11.55;6.80;;;;;;;;;;6058744;29;20088;-75
2021/04/13 08:03:23;;;;;;;8.43;6.50;;;;;;;;;;6058283;29;20049;-73
2021/04/13 08:06:59;;;;;;;9.98;7.57;;;;;;;;;;6057995;29;20057;-73
2021/04/13 08:10:11;;;;;;;7.85;6.13;;;;;;;;;;5982168;29;20685;-75
2021/04/13 08:13:25;;;;;;;9.25;6.95;;;;;;;;;;5993611;29;20047;-73
2021/04/13 08:16:30;;;;;;;8.70;6.03;;;;;;;;;;6059726;29;20125;-73
2021/04/13 08:19:33;;;;;;;7.38;6.65;;;;;;;;;;6050397;29;20077;-73
2021/04/13 08:22:51;;;;;;;7.57;5.53;;;;;;;;;;6053593;29;20073;-74
2021/04/13 08:25:57;;;;;;;7.13;5.00;;;;;;;;;;6050132;29;21001;-74
2021/04/13 08:29:04;;;;;;;6.03;4.43;;;;;;;;;;6052079;29;20128;-74
2021/04/13 08:35:39;;;;;;;5.43;3.72;;;;;;;;;;6050467;29;20543;-73
2021/04/13 08:38:44;;;;;;;;;;;;;;;;;;6050988;29;20080;-73
2021/04/13 08:41:47;;;;;;;3.33;2.83;;;;;;;;;;6050305;29;19927;-72
2021/04/13 08:44:50;;;;;;;3.67;2.45;;;;;;;;;;6060960;29;20087;-73
2021/04/13 08:47:54;;;;;;;4.55;2.63;;;;;;;;;;6055418;29;20717;-73
2021/04/13 08:51:06;;;;;;;;;;;;;;;;;;6051306;29;20092;-73
2021/04/13 08:54:21;;;;;;;4.05;2.78;;;;;;;;;;6051868;29;20077;-72
2021/04/13 08:57:32;;;;;;;2.42;2.10;;;;;;;;;;6047826;29;20053;-72
2021/04/13 09:00:42;;;;;;;3.90;2.20;;;;;;;;;;6050638;29;20508;-72
2021/04/13 09:03:44;;;;;;;3.40;2.08;;;;;;;;;;6053908;29;20048;-73
2021/04/13 09:06:56;;;;;;;3.15;2.10;;;;;;;;;;6051586;29;20753;-72
2021/04/13 09:10:14;;;;;;;3.15;2.40;;;;;;;;;;6055784;29;20052;-73
2021/04/13 09:13:29;;;;;;;3.65;2.20;;;;;;;;;;6051342;29;20396;-73
2021/04/13 09:16:32;;;;;;;2.10;1.75;;;;;;;;;;6045950;29;20503;-72
2021/04/13 09:19:36;;;;;;;2.22;1.80;;;;;;;;;;6051582;29;20045;-72
2021/04/13 09:22:47;;;;;;;3.45;2.55;;;;;;;;;;6044069;29;20148;-72
2021/04/13 09:26:02;;;;;;;4.72;1.80;;;;;;;;;;6042451;29;20107;-70
2021/04/13 09:29:04;;;;;;;4.25;1.90;;;;;;;;;;6044272;29;20076;-72
2021/04/13 09:32:07;;;;;;;4.07;2.03;;;;;;;;;;6045776;29;20493;-73
2021/04/13 09:35:25;;;;;;;2.40;1.77;;;;;;;;;;6043046;29;20148;-74
2021/04/13 09:38:42;;;;;;;3.35;1.85;;;;;;;;;;6041481;29;20132;-73
2021/04/13 09:41:51;;;;;;;3.60;2.22;;;;;;;;;;6045292;29;20161;-75
2021/04/13 09:45:04;;;;;;;3.38;2.10;;;;;;;;;;6046608;29;20716;-74
2021/04/13 09:48:18;;;;;;;2.85;1.60;;;;;;;;;;6045780;29;20150;-75
2021/04/13 09:51:24;;;;;;;3.40;1.80;;;;;;;;;;6045494;29;20149;-73
2021/04/13 09:54:31;;;;;;;1.90;1.52;;;;;;;;;;6043712;29;20197;-74
2021/04/13 09:57:53;;;;;;;1.75;1.52;;;;;;;;;;6043618;29;20147;-74
2021/04/13 10:00:58;;;;;;;3.33;1.77;;;;;;;;;;6042191;29;20093;-75
2021/04/13 10:04:28;;;;;;;3.05;1.70;;;;;;;;;;6040379;29;20056;-74
2021/04/13 10:07:38;;;;;;;3.53;1.67;;;;;;;;;;6046471;29;20733;-73
2021/04/13 10:10:43;;;;;;;2.53;1.58;;;;;;;;;;6044529;29;20192;-73
2021/04/13 10:14:12;;;;;;;2.47;1.67;;;;;;;;;;6047830;29;20049;-73
2021/04/13 10:17:27;;;;;;;3.03;1.80;;;;;;;;;;6045305;29;20049;-73
2021/04/13 10:20:34;;;;;;;2.10;1.90;;;;;;;;;;6047696;29;20060;-73
2021/04/13 10:23:59;;;;;;;3.67;1.60;;;;;;;;;;6049716;29;20136;-74
2021/04/13 10:27:30;;;;;;;2.80;1.90;;;;;;;;;;6051145;29;20552;-74
2021/04/13 10:31:09;;;;;;;2.33;1.85;;;;;;;;;;6050337;29;20136;-74
2021/04/13 10:34:43;;;;;;;3.45;2.40;;;;;;;;;;6030656;29;20041;-73
2021/04/13 10:38:17;;;;;;;3.60;2.45;;;;;;;;;;6038638;29;20072;-74
2021/04/13 10:41:43;;;;;;;;;;;;;;;;;;6044602;29;20138;-74
2021/04/13 10:45:12;;;;;;;3.25;1.80;;;;;;;;;;6050287;29;19924;-74
2021/04/13 10:48:40;;;;;;;2.22;1.90;;;;;;;;;;6050352;29;20167;-74
2021/04/13 10:52:12;;;;;;;4.10;2.40;;;;;;;;;;6051833;29;20071;-73
2021/04/13 10:55:31;;;;;;;3.03;2.35;;;;;;;;;;6031554;29;20068;-74
2021/04/13 10:59:12;;;;;;;2.33;1.92;;;;;;;;;;6050127;29;20436;-71
2021/04/13 11:02:49;;;;;;;2.85;2.17;;;;;;;;;;6047796;29;20055;-72
2021/04/13 11:06:50;;;;;;;2.65;2.20;;;;;;;;;;6041557;29;20068;-74
2021/04/13 11:10:08;;;;;;;4.47;2.20;;;;;;;;;;6044270;29;20182;-74
2021/04/13 11:13:34;;;;;;;2.85;2.35;;;;;;;;;;6047651;29;20483;-74
2021/04/13 11:17:01;;;;;;;3.42;2.00;;;;;;;;;;6033216;29;20496;-74
2021/04/13 11:20:19;;;;;;;5.75;2.13;;;;;;;;;;6042499;29;20117;-71
2021/04/13 11:23:52;;;;;;;2.15;1.90;;;;;;;;;;6046681;29;20045;-73
2021/04/13 11:27:32;;;;;;;2.35;2.10;;;;;;;;;;6043030;29;20057;-74
2021/04/13 11:30:55;;;;;;;3.47;2.13;;;;;;;;;;6023480;29;20136;-71
2021/04/13 11:34:24;;;;;;;2.90;1.75;;;;;;;;;;6047772;29;20068;-73
2021/04/13 11:37:52;;;;;;;2.13;1.92;;;;;;;;;;6048459;29;20098;-73
2021/04/13 11:41:28;;;;;;;3.85;1.83;;;;;;;;;;6049200;29;20088;-73
2021/04/13 11:44:33;;;;;;;2.35;1.70;;;;;;;;;;6020896;29;20178;-72
2021/04/13 11:47:40;;;;;;;2.55;1.20;;;;;;;;;;6050528;29;20551;-73
2021/04/13 11:50:47;;;;;;;2.90;1.60;;;;;;;;;;6044836;29;20465;-73
2021/04/13 11:53:50;;;;;;;5.68;1.80;;;;;;;;;;6047774;29;20146;-72
2021/04/13 11:56:59;;;;;;;2.10;1.80;;;;;;;;;;6051339;29;20140;-72
2021/04/13 12:00:27;;;;;;;2.13;1.90;;;;;;;;;;6035970;29;20156;-72
2021/04/13 12:03:32;;;;;;;2.83;2.03;;;;;;;;;;6043531;29;20679;-73
2021/04/13 12:06:57;;;;;;;2.25;1.90;;;;;;;;;;6041815;29;20096;-70
2021/04/13 12:09:59;;;;;;;2.70;2.03;;;;;;;;;;6043114;29;20094;-72
2021/04/13 12:13:03;;;;;;;2.70;1.83;;;;;;;;;;6041610;29;20105;-72
2021/04/13 12:16:05;;;;;;;5.80;2.15;;;;;;;;;;6052927;29;20147;-73
2021/04/13 12:19:14;;;;;;;3.08;2.20;;;;;;;;;;6045938;29;20060;-73
2021/04/13 12:22:33;;;;;;;2.85;2.05;;;;;;;;;;6044975;29;20429;-72
2021/04/13 12:25:37;;;;;;;2.17;1.90;;;;;;;;;;6040366;29;20147;-73
2021/04/13 12:28:49;;;;;;;2.30;2.05;;;;;;;;;;6044635;29;20160;-73
2021/04/13 12:32:21;;;;;;;4.10;1.85;;;;;;;;;;6045206;29;20140;-73
2021/04/13 12:35:55;;;;;;;3.50;2.38;;;;;;;;;;6044608;29;20702;-72
2021/04/13 12:38:58;;;;;;;3.78;1.80;;;;;;;;;;6044548;29;20642;-73
2021/04/13 12:42:00;;;;;;;3.00;2.00;;;;;;;;;;6043128;29;20057;-72
2021/04/13 12:45:41;;;;;;;2.50;1.98;;;;;;;;;;6048661;29;20140;-74
2021/04/13 12:48:44;;;;;;;4.70;2.35;;;;;;;;;;6022512;29;20072;-72
2021/04/13 12:51:52;;;;;;;2.88;2.20;;;;;;;;;;6045630;29;20072;-72
2021/04/13 12:54:53;;;;;;;2.75;2.17;;;;;;;;;;6042571;29;20773;-73
2021/04/13 12:57:57;;;;;;;2.67;2.10;;;;;;;;;;6044796;29;20144;-71
2021/04/13 13:00:58;;;;;;;3.47;2.38;;;;;;;;;;6042041;29;20055;-72
2021/04/13 13:04:07;;;;;;;2.90;2.55;;;;;;;;;;6042324;29;20143;-72
2021/04/13 13:07:18;;;;;;;3.83;2.60;;;;;;;;;;6044903;29;20069;-73
2021/04/13 13:10:19;;;;;;;3.17;2.30;;;;;;;;;;6040471;29;20132;-72
2021/04/13 13:13:24;;;;;;;3.65;2.70;;;;;;;;;;6042470;29;20135;-73
2021/04/13 13:16:27;;;;;;;3.38;2.40;;;;;;;;;;6044383;29;20180;-70
2021/04/13 13:19:35;;;;;;;4.88;2.60;;;;;;;;;;6039819;29;20064;-72
2021/04/13 13:22:46;;;;;;;2.55;2.20;;;;;;;;;;6038529;29;20616;-72
2021/04/13 13:25:47;;;;;;;2.78;2.50;;;;;;;;;;6043045;29;20908;-72
2021/04/13 13:28:48;;;;;;;3.45;2.28;;;;;;;;;;6041323;29;20563;-71
2021/04/13 13:31:50;;;;;;;3.50;2.72;;;;;;;;;;6040697;29;20064;-73
2021/04/13 13:34:53;;;;;;;3.53;2.80;;;;;;;;;;6045009;29;20128;-72
2021/04/13 13:37:58;;;;;;;3.72;2.60;;;;;;;;;;6043746;29;20490;-72
2021/04/13 13:41:01;;;;;;;3.28;2.70;;;;;;;;;;6034832;29;20140;-71
2021/04/13 13:44:02;;;;;;;2.97;2.23;;;;;;;;;;6059333;29;20139;-72
2021/04/13 13:47:06;;;;;;;3.72;2.17;;;;;;;;;;6043274;29;20512;-71
2021/04/13 13:50:25;;;;;;;2.25;2.00;;;;;;;;;;6047743;29;20068;-73
2021/04/13 13:53:26;;;;;;;2.83;2.05;;;;;;;;;;6048971;29;20085;-71
2021/04/13 13:56:33;;;;;;;3.00;2.30;;;;;;;;;;6043851;29;20067;-72
2021/04/13 13:59:43;;;;;;;2.20;1.92;;;;;;;;;;6047375;29;20247;-72
2021/04/13 14:02:45;;;;;;;2.80;2.22;;;;;;;;;;6049311;29;20144;-71
2021/04/13 14:05:52;;;;;;;3.78;2.28;;;;;;;;;;6052076;29;20059;-72
2021/04/13 14:09:09;;;;;;;3.75;2.17;;;;;;;;;;6042636;29;20567;-71
2021/04/13 14:12:30;;;;;;;2.92;2.20;;;;;;;;;;6047053;29;20132;-73
2021/04/13 14:15:34;;;;;;;3.10;2.20;;;;;;;;;;6048293;29;20044;-72
2021/04/13 14:18:36;;;;;;;5.78;2.30;;;;;;;;;;6053524;29;20115;-73
2021/04/13 14:21:39;;;;;;;2.83;2.05;;;;;;;;;;6047460;29;20044;-73
2021/04/13 14:24:41;;;;;;;2.65;2.10;;;;;;;;;;6049791;29;20520;-72
2021/04/13 14:27:42;;;;;;;2.65;2.13;;;;;;;;;;6048992;29;20132;-72
2021/04/13 14:30:44;;;;;;;2.60;2.40;;;;;;;;;;6047538;29;21150;-71
2021/04/13 14:33:46;;;;;;;2.42;2.15;;;;;;;;;;6049255;29;20128;-73
2021/04/13 14:36:49;;;;;;;2.40;2.20;;;;;;;;;;6049297;29;20133;-72
2021/04/13 14:39:53;;;;;;;4.00;2.10;;;;;;;;;;6046263;29;20064;-72
2021/04/13 14:42:55;;;;;;;4.18;2.40;;;;;;;;;;6046451;29;20477;-72
2021/04/13 14:45:56;;;;;;;7.90;2.67;;;;;;;;;;6050684;29;20049;-71
2021/04/13 14:48:58;;;;;;;3.15;2.30;;;;;;;;;;6047181;29;20132;-72
2021/04/13 14:51:59;;;;;;;2.70;2.42;;;;;;;;;;6047350;29;20068;-71
2021/04/13 14:55:00;;;;;;;4.57;3.50;;;;;;;;;;6048604;29;20149;-71
2021/04/13 14:58:05;;;;;;;3.22;2.55;;;;;;;;;;6049801;29;20148;-71
2021/04/13 15:01:06;;;;;;;3.33;2.72;;;;;;;;;;6047949;29;20157;-71
2021/04/13 15:04:08;;;;;;;4.13;2.47;;;;;;;;;;6045960;29;20152;-71
2021/04/13 15:07:10;;;;;;;3.17;2.80;;;;;;;;;;6048371;29;20049;-73
2021/04/13 15:10:15;;;;;;;3.05;2.40;;;;;;;;;;6051801;29;20064;-72
2021/04/13 15:13:17;;;;;;;3.10;2.58;;;;;;;;;;6048513;29;20136;-72
2021/04/13 15:16:19;;;;;;;3.38;2.50;;;;;;;;;;6052563;29;20071;-72
2021/04/13 15:19:21;;;;;;;3.78;2.83;;;;;;;;;;6053313;29;20053;-72
2021/04/13 15:22:24;;;;;;;4.30;2.77;;;;;;;;;;6049243;29;20137;-72
2021/04/13 15:25:26;;;;;;;3.07;2.77;;;;;;;;;;6042862;29;20364;-72
2021/04/13 15:28:27;;;;;;;3.75;2.80;;;;;;;;;;6046667;29;20458;-72
2021/04/13 15:31:28;;;;;;;3.72;2.75;;;;;;;;;;6045076;29;20132;-72
2021/04/13 15:34:34;;;;;;;2.90;2.60;;;;;;;;;;6044162;29;20147;-71
2021/04/13 15:37:38;;;;;;;5.65;2.90;;;;;;;;;;6045530;29;20356;-71
2021/04/13 15:40:41;;;;;;;3.25;2.58;;;;;;;;;;6046657;29;20149;-72
2021/04/13 15:43:47;;;;;;;3.13;2.78;;;;;;;;;;6045402;29;20116;-72
2021/04/13 15:46:51;;;;;;;3.95;2.90;;;;;;;;;;6047450;29;20136;-72
2021/04/13 15:49:53;;;;;;;4.70;2.70;;;;;;;;;;6047420;29;20053;-73
2021/04/13 15:52:54;;;;;;;3.72;2.95;;;;;;;;;;6044966;29;20101;-76
2021/04/13 15:55:56;;;;;;;3.10;2.80;;;;;;;;;;6045675;29;20140;-73
2021/04/13 15:58:57;;;;;;;3.17;2.88;;;;;;;;;;6043606;29;20084;-73
2021/04/13 16:01:59;;;;;;;3.33;2.80;;;;;;;;;;6042344;29;20159;-74
2021/04/13 16:05:01;;;;;;;3.72;3.03;;;;;;;;;;6040354;29;20053;-73
2021/04/13 16:08:02;;;;;;;4.18;2.92;;;;;;;;;;6043342;29;20140;-73
2021/04/13 16:11:03;;;;;;;4.00;3.22;;;;;;;;;;6041758;29;20140;-73
2021/04/13 16:14:05;;;;;;;4.50;3.20;;;;;;;;;;6045089;29;20117;-71
2021/04/13 16:17:06;;;;;;;3.42;3.13;;;;;;;;;;6046878;29;20080;-72
2021/04/13 16:20:09;;;;;;;3.90;3.28;;;;;;;;;;6045087;29;20099;-71
2021/04/13 16:23:10;;;;;;;3.58;3.28;;;;;;;;;;6043534;29;20061;-71
2021/04/13 16:26:12;;;;;;;3.72;3.33;;;;;;;;;;6048155;29;20703;-72
2021/04/13 16:29:13;;;;;;;4.53;3.60;;;;;;;;;;6044850;29;20144;-71
2021/04/13 16:32:20;;;;;;;4.70;3.95;;;;;;;;;;6044695;29;20067;-71
2021/04/13 16:35:24;;;;;;;4.40;3.63;;;;;;;;;;6041990;29;20069;-72
2021/04/13 16:38:25;;;;;;;4.75;3.50;;;;;;;;;;6040506;29;20723;-71
2021/04/13 16:41:27;;;;;;;3.88;3.47;;;;;;;;;;6044869;29;20158;-72
2021/04/13 16:44:29;;;;;;;5.05;4.05;;;;;;;;;;6043588;29;20436;-71
2021/04/13 16:47:31;;;;;;;6.10;3.65;;;;;;;;;;6044680;29;20487;-71
2021/04/13 16:50:34;;;;;;;6.05;4.00;;;;;;;;;;6049864;29;20096;-71
2021/04/13 16:53:36;;;;;;;4.35;3.72;;;;;;;;;;6049756;29;20688;-71
2021/04/13 16:56:37;;;;;;;4.22;3.50;;;;;;;;;;6048020;29;20121;-71
2021/04/13 16:59:39;;;;;;;5.93;4.07;;;;;;;;;;6044850;29;20127;-71
2021/04/13 17:02:46;;;;;;;6.50;3.60;;;;;;;;;;6040559;29;20090;-71
2021/04/13 17:05:53;;;;;;;5.70;4.00;;;;;;;;;;6042277;29;20102;-71
2021/04/13 17:09:05;;;;;;;6.50;3.97;;;;;;;;;;6038110;29;20136;-71
2021/04/13 17:12:09;;;;;;;4.25;3.85;;;;;;;;;;6037332;29;20143;-71
2021/04/13 17:15:13;;;;;;;5.13;3.50;;;;;;;;;;6038792;29;20073;-72
2021/04/13 17:18:17;;;;;;;5.80;4.72;;;;;;;;;;6039130;29;20136;-71
2021/04/13 17:21:22;;;;;;;6.78;3.78;;;;;;;;;;6037874;29;20100;-71
2021/04/13 17:24:27;;;;;;;5.75;4.38;;;;;;;;;;6046920;29;20657;-72
2021/04/13 17:27:31;;;;;;;5.80;4.18;;;;;;;;;;6052546;29;20120;-71
2021/04/13 17:30:35;;;;;;;5.30;4.28;;;;;;;;;;6045748;29;20077;-71
2021/04/13 17:33:38;;;;;;;6.13;4.23;;;;;;;;;;6051434;29;20049;-71
2021/04/13 17:36:42;;;;;;;5.47;4.30;;;;;;;;;;6051082;29;20067;-71
2021/04/13 17:39:45;;;;;;;6.28;4.20;;;;;;;;;;6055864;29;20500;-72
2021/04/13 17:42:48;;;;;;;7.75;4.57;;;;;;;;;;6048738;29;20077;-72
2021/04/13 17:45:50;;;;;;;5.97;4.45;;;;;;;;;;6055470;29;20049;-71
2021/04/13 17:48:54;;;;;;;5.65;4.10;;;;;;;;;;6061942;29;20141;-71
2021/04/13 17:51:55;;;;;;;;;;;;;;;;;;6060566;29;20515;-71
2021/04/13 17:55:01;;;;;;;5.85;4.57;;;;;;;;;;6058873;29;19934;-71
2021/04/13 17:58:03;;;;;;;7.70;4.50;;;;;;;;;;6056293;29;20053;-71
2021/04/13 18:01:04;;;;;;;7.13;4.20;;;;;;;;;;6055770;29;20053;-71
2021/04/13 18:04:09;;;;;;;6.22;4.68;;;;;;;;;;6062507;29;20072;-70
2021/04/13 18:07:14;;;;;;;6.43;4.32;;;;;;;;;;6064946;29;20045;-71
2021/04/13 18:10:21;;;;;;;5.10;4.40;;;;;;;;;;6066964;29;20052;-71
2021/04/13 18:13:24;;;;;;;4.78;3.90;;;;;;;;;;6065944;29;20113;-71
2021/04/13 18:16:28;;;;;;;6.93;4.50;;;;;;;;;;6059569;29;20445;-72
2021/04/13 18:19:32;;;;;;;5.45;4.40;;;;;;;;;;6061689;29;20124;-71
2021/04/13 18:22:34;;;;;;;7.43;5.10;;;;;;;;;;6063198;29;20069;-71
2021/04/13 18:25:40;;;;;;;8.00;5.00;;;;;;;;;;6059248;29;20057;-71
2021/04/13 18:28:45;;;;;;;8.55;4.82;;;;;;;;;;6060557;29;20709;-71
2021/04/13 18:31:49;;;;;;;6.82;4.03;;;;;;;;;;6061107;29;20508;-71
2021/04/13 18:34:54;;;;;;;6.57;4.63;;;;;;;;;;6062028;29;20042;-71
2021/04/13 18:37:59;;;;;;;5.07;4.32;;;;;;;;;;6063403;29;20600;-71
2021/04/13 18:41:02;;;;;;;8.07;3.78;;;;;;;;;;6060555;29;20076;-72
2021/04/13 18:44:06;;;;;;;4.95;3.90;;;;;;;;;;6069559;29;20065;-71